WIDD/BTH METAR and TAF weather

Enter ICAO airport designator
Station Type Date Time Source
WIDD METAR 2020/04/07 15:30 UTC NOAA

WIDD 071530Z 11003KT 9999 FEW014 28/25 Q1013 NOSIG


Station Type Date Time Source
WIDD Decoded METAR 2020/04/07 15:30 UTC NOAA

Station name not available
Apr 07, 2020 - 11:30 AM EDT / 2020.04.07 1530 UTC
Wind: from the ESE (110 degrees) at 3 MPH (3 KT):0
Visibility: greater than 7 mile(s):0
Sky conditions: mostly clear
Temperature: 82 F (28 C)
Dew Point: 77 F (25 C)
Relative Humidity: 83%
Pressure (altimeter): 29.91 in. Hg (1013 hPa)
ob: WIDD 071530Z 11003KT 9999 FEW014 28/25 Q1013 NOSIG
cycle: 15

Station Type Date Time Source
WIDD TAF 2020/04/07 12:00 UTC NOAA

TAF WIDD 071100Z 0712/0812 06005KT 9999 FEW014
TEMPO 0721/0801 -TSRA FEW014CB

Example: see airport list